Time;durP1;ratioP1;P1;durP2;ratioP2;P2;SDS_P1;SDS_P2;PMS_P1;PMS_P2;Temp;Humidity;BMP_temperature;BMP_pressure;BME280_temperature;BME280_humidity;BME280_pressure;Samples;Min_cycle;Max_cycle;Signal;HPM_P1;HPM_P2
2022/03/21 00:01:16;;;;;;;16.60;13.73;;;9.30;58.00;;;;;;5096951;28;20921;-57
2022/03/21 00:03:45;;;;;;;17.97;14.13;;;9.30;58.10;;;;;;5096838;28;20898;-57
2022/03/21 00:06:13;;;;;;;13.70;11.80;;;9.30;58.20;;;;;;5097044;28;20479;-57
2022/03/21 00:08:40;;;;;;;15.97;11.67;;;9.10;58.50;;;;;;5096835;28;20913;-57
2022/03/21 00:11:07;;;;;;;15.70;12.10;;;9.00;58.40;;;;;;5097032;28;20501;-57
2022/03/21 00:13:35;;;;;;;18.00;13.37;;;8.90;58.50;;;;;;5097039;28;20520;-57
2022/03/21 00:16:03;;;;;;;15.27;12.67;;;8.90;58.80;;;;;;5096932;28;20443;-56
2022/03/21 00:18:30;;;;;;;13.33;11.73;;;8.80;58.80;;;;;;5096928;28;20471;-56
2022/03/21 00:20:58;;;;;;;14.07;11.63;;;8.70;58.80;;;;;;5096772;28;20450;-57
2022/03/21 00:23:27;;;;;;;18.57;13.10;;;8.60;59.20;;;;;;5096480;28;20443;-57
2022/03/21 00:25:54;;;;;;;15.90;11.50;;;8.70;59.10;;;;;;5096387;28;20486;-57
2022/03/21 00:28:22;;;;;;;13.90;11.83;;;8.80;59.60;;;;;;5096303;28;20495;-56
2022/03/21 00:30:49;;;;;;;16.13;12.53;;;8.80;59.70;;;;;;5096644;28;20447;-57
2022/03/21 00:33:17;;;;;;;13.60;12.20;;;8.80;59.60;;;;;;5096746;28;20479;-56
2022/03/21 00:35:44;;;;;;;12.83;11.60;;;8.70;60.00;;;;;;5096273;28;20933;-56
2022/03/21 00:38:17;;;;;;;14.27;11.47;;;8.70;60.70;;;;;;5096125;28;20995;-57
2022/03/21 00:40:46;;;;;;;15.00;12.87;;;8.70;60.50;;;;;;5096624;28;20428;-57
2022/03/21 00:43:13;;;;;;;13.50;12.10;;;8.70;60.60;;;;;;5096593;28;20987;-57
2022/03/21 00:45:41;;;;;;;15.60;12.90;;;8.60;61.40;;;;;;5096220;28;20450;-57
2022/03/21 00:48:08;;;;;;;19.30;13.23;;;8.50;61.00;;;;;;5096488;28;20554;-57
2022/03/21 00:50:35;;;;;;;16.83;13.73;;;8.40;61.80;;;;;;5096077;28;20444;-57
2022/03/21 00:53:02;;;;;;;17.10;12.17;;;8.20;62.10;;;;;;5094784;28;20967;-56
2022/03/21 00:55:31;;;;;;;17.87;13.03;;;8.20;62.10;;;;;;5095919;28;20447;-56
2022/03/21 00:57:59;;;;;;;16.90;12.90;;;8.20;62.70;;;;;;5096195;28;20814;-57
2022/03/21 01:00:28;;;;;;;13.40;11.90;;;8.30;63.20;;;;;;5095764;28;20543;-56
2022/03/21 01:02:56;;;;;;;14.97;12.50;;;8.30;62.70;;;;;;5096019;28;20448;-57
2022/03/21 01:05:23;;;;;;;15.43;13.07;;;8.30;63.10;;;;;;5095797;28;20922;-57
2022/03/21 01:07:51;;;;;;;14.87;12.00;;;8.10;63.60;;;;;;5095817;28;20491;-57
2022/03/21 01:10:20;;;;;;;15.00;11.40;;;8.10;64.50;;;;;;5095531;28;21021;-57
2022/03/21 01:12:49;;;;;;;16.70;11.70;;;8.20;64.40;;;;;;5095942;28;20872;-57
2022/03/21 01:15:18;;;;;;;15.13;13.07;;;8.10;65.00;;;;;;5095478;28;20930;-57
2022/03/21 01:17:46;;;;;;;16.47;13.97;;;8.00;64.40;;;;;;5095648;28;20470;-57
2022/03/21 01:20:15;;;;;;;14.43;12.70;;;7.80;65.10;;;;;;5095403;28;20534;-57
2022/03/21 01:22:42;;;;;;;15.50;13.10;;;7.90;65.70;;;;;;5095417;28;20450;-57
2022/03/21 01:25:11;;;;;;;16.83;12.63;;;7.80;65.50;;;;;;5095515;28;20569;-57
2022/03/21 01:27:40;;;;;;;16.33;12.40;;;7.90;65.50;;;;;;5095399;28;20487;-56
2022/03/21 01:30:12;;;;;;;17.80;12.83;;;7.90;66.30;;;;;;5095574;28;20814;-56
2022/03/21 01:32:42;;;;;;;17.70;14.63;;;7.80;66.50;;;;;;5095472;28;20521;-56
2022/03/21 01:35:11;;;;;;;15.00;12.07;;;7.80;66.20;;;;;;5095101;28;20460;-56
2022/03/21 01:37:38;;;;;;;13.37;11.67;;;7.80;66.20;;;;;;5095031;28;21010;-57
2022/03/21 01:40:06;;;;;;;16.10;12.60;;;7.80;66.70;;;;;;5095418;28;20444;-56
2022/03/21 01:42:36;;;;;;;16.83;13.63;;;7.80;67.40;;;;;;5094926;28;20550;-57
2022/03/21 01:45:05;;;;;;;13.93;12.13;;;7.70;67.60;;;;;;5095169;28;20430;-57
2022/03/21 01:47:34;;;;;;;15.00;12.43;;;7.60;67.40;;;;;;5094802;28;20540;-57
2022/03/21 01:50:02;;;;;;;15.40;11.90;;;7.70;68.00;;;;;;5094820;28;20829;-57
2022/03/21 01:52:30;;;;;;;15.77;11.67;;;7.60;67.90;;;;;;5094662;28;20994;-57
2022/03/21 01:57:43;;;;;;;15.30;12.20;;;7.70;67.50;;;;;;5094919;28;20540;-57
2022/03/21 02:00:11;;;;;;;18.50;13.10;;;7.60;68.00;;;;;;5094608;28;20972;-56
2022/03/21 02:02:40;;;;;;;12.67;10.87;;;7.60;68.40;;;;;;5094528;28;20538;-56
2022/03/21 02:05:08;;;;;;;21.23;15.20;;;7.60;67.80;;;;;;5094912;28;20550;-57
2022/03/21 02:07:36;;;;;;;16.50;12.37;;;7.60;67.50;;;;;;5094708;28;20490;-57
2022/03/21 02:10:04;;;;;;;14.23;11.60;;;7.60;67.20;;;;;;5094462;28;20451;-57
2022/03/21 02:12:31;;;;;;;12.90;11.07;;;7.60;67.80;;;;;;5094554;28;20814;-57
2022/03/21 02:14:59;;;;;;;13.87;11.47;;;7.50;67.10;;;;;;5094816;28;20436;-56
2022/03/21 02:17:28;;;;;;;19.60;13.23;;;7.40;67.20;;;;;;5094518;28;20892;-57
2022/03/21 02:20:01;;;;;;;19.50;14.33;;;7.40;67.70;;;;;;5094203;28;20447;-57
2022/03/21 02:22:34;;;;;;;15.00;11.60;;;7.40;68.70;;;;;;5094356;28;20432;-57
2022/03/21 02:25:28;;;;;;;14.10;12.13;;;7.50;68.80;;;;;;5094549;28;20463;-57
2022/03/21 02:28:01;;;;;;;18.33;14.43;;;7.50;69.50;;;;;;5089440;28;20487;-56
2022/03/21 02:30:30;;;;;;;17.60;11.57;;;7.60;69.20;;;;;;5094485;28;20424;-56
2022/03/21 02:32:57;;;;;;;16.70;11.70;;;7.60;69.80;;;;;;5093993;28;20490;-57
2022/03/21 02:35:26;;;;;;;13.60;11.80;;;7.70;69.60;;;;;;5094256;28;20506;-57
2022/03/21 02:37:55;;;;;;;16.87;13.40;;;7.60;69.80;;;;;;5093938;28;21031;-57
2022/03/21 02:40:23;;;;;;;15.90;12.70;;;7.50;70.80;;;;;;5093882;28;20479;-57
2022/03/21 02:42:50;;;;;;;16.93;11.87;;;7.40;70.50;;;;;;5094285;28;20811;-56
2022/03/21 02:45:19;;;;;;;15.83;12.70;;;7.30;70.90;;;;;;5094207;28;20451;-56
2022/03/21 02:47:46;;;;;;;14.90;11.83;;;7.40;71.10;;;;;;5093629;28;20849;-57
2022/03/21 02:50:16;;;;;;;15.20;12.23;;;7.50;71.10;;;;;;5094004;28;20866;-56
2022/03/21 02:52:46;;;;;;;15.30;12.57;;;7.50;71.80;;;;;;5093615;28;20987;-57
2022/03/21 02:55:13;;;;;;;14.63;12.40;;;7.50;71.20;;;;;;5093634;28;20453;-57
2022/03/21 02:57:40;;;;;;;15.17;12.63;;;7.60;71.20;;;;;;5093499;28;20474;-57
2022/03/21 03:00:08;;;;;;;16.10;12.50;;;7.50;71.50;;;;;;5093656;28;20450;-57
2022/03/21 03:02:37;;;;;;;19.90;12.93;;;7.50;71.50;;;;;;5093606;28;20443;-57
2022/03/21 03:05:04;;;;;;;12.37;11.17;;;7.40;71.80;;;;;;5093526;28;20546;-57
2022/03/21 03:07:31;;;;;;;17.67;12.27;;;7.50;72.10;;;;;;5092542;28;20479;-56
2022/03/21 03:09:58;;;;;;;15.10;12.27;;;7.20;71.10;;;;;;5093867;28;20458;-57
2022/03/21 03:12:25;;;;;;;12.67;11.33;;;7.20;71.70;;;;;;5093352;28;20456;-57
2022/03/21 03:14:53;;;;;;;16.60;12.50;;;7.20;71.80;;;;;;5093643;28;20432;-56
2022/03/21 03:17:20;;;;;;;13.30;11.93;;;7.30;73.60;;;;;;5093390;28;20463;-57
2022/03/21 03:19:48;;;;;;;15.70;12.07;;;7.20;73.50;;;;;;5093304;28;20535;-57
2022/03/21 03:22:17;;;;;;;15.23;12.73;;;7.10;73.70;;;;;;5093560;28;20530;-57
2022/03/21 03:24:46;;;;;;;14.97;11.60;;;7.10;74.10;;;;;;5093663;28;20443;-56
2022/03/21 03:27:13;;;;;;;15.83;12.47;;;7.10;74.20;;;;;;5093229;28;20487;-57
2022/03/21 03:29:40;;;;;;;16.83;12.63;;;7.10;75.10;;;;;;5093154;28;20793;-56
2022/03/21 03:32:08;;;;;;;18.30;12.73;;;7.10;75.10;;;;;;5093262;28;20444;-56
2022/03/21 03:34:36;;;;;;;16.33;12.90;;;7.00;75.60;;;;;;5093426;28;20450;-57
2022/03/21 03:37:05;;;;;;;18.17;13.70;;;7.00;75.70;;;;;;5092989;28;20467;-56
2022/03/21 03:39:32;;;;;;;17.00;12.57;;;7.00;75.80;;;;;;5093199;28;20938;-57
2022/03/21 03:41:59;;;;;;;14.77;12.70;;;7.00;76.90;;;;;;5093606;28;20543;-57
2022/03/21 03:44:27;;;;;;;15.60;11.17;;;7.00;76.10;;;;;;5093491;28;20455;-56
2022/03/21 03:46:54;;;;;;;15.97;12.20;;;7.00;76.40;;;;;;5092934;28;20467;-57
2022/03/21 03:49:21;;;;;;;16.60;11.73;;;6.90;76.80;;;;;;5093444;28;20450;-56
2022/03/21 03:51:48;;;;;;;19.43;11.10;;;6.80;76.60;;;;;;5092721;28;20562;-57
2022/03/21 03:54:17;;;;;;;16.77;13.60;;;6.90;77.30;;;;;;5093243;28;20451;-56
2022/03/21 03:56:44;;;;;;;15.00;12.83;;;6.60;76.50;;;;;;5093446;28;20828;-56
2022/03/21 03:59:11;;;;;;;15.77;12.17;;;6.60;77.40;;;;;;5092915;28;21010;-57
2022/03/21 04:01:38;;;;;;;15.83;12.97;;;6.70;77.60;;;;;;5092899;28;20538;-57
2022/03/21 04:04:06;;;;;;;14.73;12.17;;;6.70;78.90;;;;;;5093320;28;20448;-57
2022/03/21 04:06:34;;;;;;;13.07;11.67;;;6.60;77.50;;;;;;5093082;28;20466;-56
2022/03/21 04:09:01;;;;;;;18.40;13.07;;;6.60;78.70;;;;;;5092895;28;20483;-57
2022/03/21 04:11:29;;;;;;;17.50;13.10;;;6.60;79.40;;;;;;5093230;28;20439;-57
2022/03/21 04:13:56;;;;;;;17.87;12.87;;;6.50;79.30;;;;;;5093096;28;20460;-56
2022/03/21 04:16:24;;;;;;;18.10;13.30;;;6.50;78.70;;;;;;5093033;28;20530;-57
2022/03/21 04:18:51;;;;;;;17.97;12.10;;;6.40;78.90;;;;;;5094378;28;20443;-56
2022/03/21 04:21:18;;;;;;;19.43;13.33;;;6.40;80.10;;;;;;5096526;28;20447;-57
2022/03/21 04:23:45;;;;;;;17.60;13.03;;;6.60;79.20;;;;;;5096787;28;20443;-57
2022/03/21 04:26:12;;;;;;;17.00;13.40;;;6.60;80.00;;;;;;5096432;28;20449;-56
2022/03/21 04:28:41;;;;;;;16.30;12.80;;;6.60;80.30;;;;;;5096267;28;20569;-57
2022/03/21 04:31:08;;;;;;;14.97;11.80;;;6.70;80.10;;;;;;5096370;28;20945;-57
2022/03/21 04:33:35;;;;;;;17.73;13.30;;;6.60;80.80;;;;;;5096750;28;20449;-57
2022/03/21 04:36:02;;;;;;;17.60;13.47;;;6.50;81.00;;;;;;5096536;28;20549;-57
2022/03/21 04:38:29;;;;;;;15.13;12.53;;;6.50;81.10;;;;;;5096161;28;20466;-56
2022/03/21 04:40:56;;;;;;;13.83;12.40;;;6.50;82.10;;;;;;5096576;28;20447;-56
2022/03/21 04:43:23;;;;;;;17.30;12.80;;;6.40;82.30;;;;;;5096341;28;20457;-57
2022/03/21 04:45:52;;;;;;;17.17;13.50;;;6.40;82.40;;;;;;5096040;28;20543;-56
2022/03/21 04:48:20;;;;;;;14.77;12.30;;;6.40;83.10;;;;;;5096279;28;20853;-56
2022/03/21 04:50:47;;;;;;;15.43;13.77;;;6.30;82.30;;;;;;5096419;28;20482;-57
2022/03/21 04:53:14;;;;;;;14.37;12.00;;;6.30;83.20;;;;;;5095812;28;20483;-57
2022/03/21 04:55:42;;;;;;;14.80;12.27;;;6.30;83.40;;;;;;5096080;28;20448;-56
2022/03/21 04:58:09;;;;;;;17.07;13.90;;;6.20;82.10;;;;;;5096221;28;20474;-57
2022/03/21 05:00:37;;;;;;;15.80;11.80;;;6.20;82.90;;;;;;5096081;28;20459;-57
2022/03/21 05:03:07;;;;;;;18.77;13.10;;;6.30;82.80;;;;;;5096050;28;20448;-56
2022/03/21 05:05:36;;;;;;;21.70;13.27;;;6.30;82.80;;;;;;5096113;28;20501;-56
2022/03/21 05:08:04;;;;;;;17.50;13.07;;;6.30;83.70;;;;;;5095794;28;20483;-56
2022/03/21 05:10:32;;;;;;;14.10;12.10;;;6.30;84.00;;;;;;5095906;28;20481;-57
2022/03/21 05:13:00;;;;;;;18.63;12.87;;;6.30;83.80;;;;;;5095922;28;20455;-56
2022/03/21 05:15:27;;;;;;;16.83;12.37;;;6.20;83.60;;;;;;5095804;28;20452;-56
2022/03/21 05:17:54;;;;;;;16.17;12.07;;;6.10;84.10;;;;;;5095662;28;20459;-56
2022/03/21 05:20:23;;;;;;;14.60;12.07;;;6.10;83.60;;;;;;5095820;28;20447;-56
2022/03/21 05:31:02;;;;;;;14.60;12.90;;;6.10;83.70;;;;;;5094366;28;20456;-56
2022/03/21 05:36:17;;;;;;;17.53;15.57;;;6.20;83.50;;;;;;5095171;28;20457;-56
2022/03/21 05:38:45;;;;;;;17.33;13.67;;;6.10;83.70;;;;;;5095247;28;20463;-56
2022/03/21 05:41:13;;;;;;;19.03;15.33;;;6.20;84.10;;;;;;5095052;28;21020;-56
2022/03/21 05:43:40;;;;;;;21.00;14.23;;;6.10;84.30;;;;;;5095133;28;20985;-56
2022/03/21 05:46:07;;;;;;;17.53;14.20;;;6.00;83.70;;;;;;5095159;28;20450;-56
2022/03/21 05:48:59;;;;;;;19.57;13.90;;;6.00;84.00;;;;;;5094773;28;20982;-57
2022/03/21 05:51:30;;;;;;;19.47;14.67;;;6.00;84.70;;;;;;5094919;28;20536;-56
2022/03/21 05:53:58;;;;;;;15.27;13.77;;;6.00;85.00;;;;;;5094647;28;20463;-57
2022/03/21 05:56:27;;;;;;;21.80;18.00;;;6.10;85.50;;;;;;5094530;28;20448;-57
2022/03/21 05:58:55;;;;;;;19.27;13.80;;;6.10;85.70;;;;;;5094615;28;20443;-57
2022/03/21 06:01:23;;;;;;;18.30;12.50;;;6.20;85.60;;;;;;5094933;28;20452;-56
2022/03/21 06:03:51;;;;;;;18.63;14.00;;;6.20;85.20;;;;;;5094758;28;20815;-57
2022/03/21 06:06:18;;;;;;;16.87;13.70;;;6.20;86.10;;;;;;5094779;28;20531;-56
2022/03/21 06:08:47;;;;;;;17.90;13.50;;;6.20;86.00;;;;;;5094385;28;20479;-57
2022/03/21 06:11:14;;;;;;;22.73;13.57;;;6.20;86.20;;;;;;5094315;28;20929;-56
2022/03/21 06:13:43;;;;;;;16.80;12.80;;;6.20;86.00;;;;;;5094018;28;20454;-57
2022/03/21 06:16:11;;;;;;;17.17;13.20;;;6.20;85.70;;;;;;5094367;28;20447;-56
2022/03/21 06:18:39;;;;;;;17.70;13.93;;;6.30;85.80;;;;;;5094026;28;20589;-57
2022/03/21 06:21:08;;;;;;;15.10;11.43;;;6.30;85.60;;;;;;5093858;28;20859;-56
2022/03/21 06:23:40;;;;;;;13.63;10.87;;;6.40;78.60;;;;;;5094130;28;20790;-56
2022/03/21 06:26:08;;;;;;;16.13;12.00;;;6.50;77.10;;;;;;5094374;28;20470;-56
2022/03/21 06:28:36;;;;;;;20.10;14.70;;;6.60;79.50;;;;;;5093843;28;20482;-56
2022/03/21 06:31:04;;;;;;;16.17;12.13;;;6.70;78.50;;;;;;5094174;28;20451;-56
2022/03/21 06:33:32;;;;;;;14.90;13.07;;;6.70;77.00;;;;;;5094021;28;20933;-56
2022/03/21 06:36:02;;;;;;;15.50;14.00;;;6.70;74.40;;;;;;5094056;28;20516;-56
2022/03/21 06:38:29;;;;;;;16.10;11.70;;;6.90;73.60;;;;;;5093712;28;20909;-57
2022/03/21 06:40:56;;;;;;;15.83;13.00;;;6.80;71.60;;;;;;5093682;28;20578;-56
2022/03/21 06:43:27;;;;;;;16.50;12.27;;;6.90;72.90;;;;;;5093786;28;20459;-57
2022/03/21 06:45:55;;;;;;;14.63;12.23;;;7.00;70.60;;;;;;5093509;28;20438;-56
2022/03/21 06:48:23;;;;;;;19.93;12.73;;;7.10;71.40;;;;;;5093547;28;20483;-57
2022/03/21 06:50:53;;;;;;;15.80;12.83;;;7.30;71.40;;;;;;5093737;28;20447;-57
2022/03/21 06:53:21;;;;;;;13.20;11.80;;;7.30;71.30;;;;;;5093579;28;20503;-57
2022/03/21 06:55:48;;;;;;;14.13;12.60;;;7.40;68.30;;;;;;5093174;28;20963;-57
2022/03/21 06:58:17;;;;;;;14.83;12.43;;;7.50;68.00;;;;;;5093836;28;20466;-57
2022/03/21 07:00:47;;;;;;;15.60;13.33;;;7.60;68.20;;;;;;5093320;28;20817;-56
2022/03/21 07:03:16;;;;;;;16.43;11.50;;;7.70;68.70;;;;;;5093531;28;20444;-56
2022/03/21 07:05:43;;;;;;;16.40;13.57;;;7.70;67.70;;;;;;5093822;28;20826;-57
2022/03/21 07:08:11;;;;;;;19.27;13.87;;;7.90;68.30;;;;;;5093410;28;20490;-57
2022/03/21 07:10:40;;;;;;;18.03;12.93;;;7.90;69.50;;;;;;5093467;28;20454;-57
2022/03/21 07:13:08;;;;;;;16.50;13.13;;;8.00;67.50;;;;;;5093446;28;20562;-57
2022/03/21 07:15:36;;;;;;;24.40;13.90;;;7.90;66.10;;;;;;5093356;28;20443;-57
2022/03/21 07:18:05;;;;;;;14.50;12.63;;;7.90;66.50;;;;;;5093280;28;20737;-57
2022/03/21 07:20:33;;;;;;;21.73;13.77;;;7.90;66.50;;;;;;5093049;28;20461;-57
2022/03/21 07:23:01;;;;;;;15.90;13.43;;;7.90;66.50;;;;;;5093406;28;20443;-57
2022/03/21 07:25:28;;;;;;;17.33;13.90;;;7.90;66.00;;;;;;5093138;28;20444;-57
2022/03/21 07:27:55;;;;;;;15.80;11.90;;;7.90;65.60;;;;;;5092553;28;20463;-57
2022/03/21 07:30:22;;;;;;;17.27;13.83;;;8.10;67.30;;;;;;5092991;28;20868;-57
2022/03/21 07:32:49;;;;;;;15.17;12.83;;;8.10;65.70;;;;;;5093203;28;20481;-57
2022/03/21 07:35:18;;;;;;;20.07;14.23;;;8.10;66.30;;;;;;5092862;28;20539;-57
2022/03/21 07:37:47;;;;;;;20.33;14.50;;;8.10;66.60;;;;;;5092895;28;20470;-57
2022/03/21 07:40:15;;;;;;;32.97;14.30;;;8.20;68.40;;;;;;5092866;28;20451;-57
2022/03/21 07:42:44;;;;;;;17.47;13.00;;;8.40;69.40;;;;;;5092795;28;20455;-57
2022/03/21 07:47:57;;;;;;;21.67;15.53;;;8.50;67.20;;;;;;5089948;28;20640;-57
2022/03/21 07:50:27;;;;;;;22.37;13.57;;;8.60;66.70;;;;;;5083934;28;20475;-58
2022/03/21 07:52:55;;;;;;;18.17;13.10;;;8.70;66.10;;;;;;5092441;28;20894;-57
2022/03/21 07:55:26;;;;;;;17.90;14.03;;;8.70;65.10;;;;;;5096143;28;20545;-57
2022/03/21 07:57:53;;;;;;;19.63;13.27;;;8.80;66.10;;;;;;5096588;28;20977;-58
2022/03/21 08:00:20;;;;;;;17.53;14.37;;;8.90;66.10;;;;;;5088036;28;20451;-58
2022/03/21 08:02:49;;;;;;;16.27;11.93;;;9.00;67.60;;;;;;5077705;28;20842;-57
2022/03/21 08:05:17;;;;;;;15.30;12.90;;;9.10;67.00;;;;;;5096726;28;20451;-57
2022/03/21 08:07:45;;;;;;;18.17;14.07;;;9.10;67.00;;;;;;5086032;28;20629;-58
2022/03/21 08:10:13;;;;;;;18.93;12.90;;;9.20;66.00;;;;;;5076391;28;20506;-57
2022/03/21 08:12:42;;;;;;;16.63;13.50;;;9.20;63.60;;;;;;5076206;28;20821;-58
2022/03/21 08:15:11;;;;;;;24.27;16.03;;;9.20;63.50;;;;;;5076459;28;20429;-57
2022/03/21 08:17:52;;;;;;;17.53;13.07;;;9.30;62.70;;;;;;5083700;28;20555;-57
2022/03/21 08:20:20;;;;;;;18.03;13.80;;;9.40;64.10;;;;;;5096309;28;20427;-57
2022/03/21 08:22:49;;;;;;;19.10;14.13;;;9.50;64.50;;;;;;5096551;28;20451;-57
2022/03/21 08:25:17;;;;;;;17.30;14.30;;;9.40;63.60;;;;;;5096639;28;20447;-57
2022/03/21 08:27:44;;;;;;;15.30;13.13;;;9.50;64.60;;;;;;5095374;28;20603;-57
2022/03/21 08:30:13;;;;;;;18.37;14.37;;;9.60;63.60;;;;;;5096452;28;20544;-57
2022/03/21 08:32:40;;;;;;;18.37;13.97;;;9.60;63.90;;;;;;5096238;28;21009;-56
2022/03/21 08:35:08;;;;;;;18.43;14.90;;;9.60;64.00;;;;;;5096329;28;20477;-58
2022/03/21 08:37:35;;;;;;;15.73;13.73;;;9.80;65.20;;;;;;5095858;28;20512;-57
2022/03/21 08:40:06;;;;;;;18.73;13.80;;;9.80;64.10;;;;;;5096185;28;20454;-56
2022/03/21 08:42:33;;;;;;;20.10;12.53;;;9.80;64.60;;;;;;5086798;28;20947;-56
2022/03/21 08:45:01;;;;;;;15.63;13.20;;;9.90;63.90;;;;;;5075659;28;20438;-57
2022/03/21 08:47:28;;;;;;;14.27;12.87;;;9.90;64.30;;;;;;5078756;28;20991;-57
2022/03/21 08:49:55;;;;;;;19.80;14.37;;;10.00;61.70;;;;;;5095707;28;20475;-57
2022/03/21 08:52:22;;;;;;;19.70;13.63;;;10.20;63.30;;;;;;5095496;28;20481;-57
2022/03/21 08:54:49;;;;;;;21.60;14.93;;;10.40;61.90;;;;;;5095815;28;20802;-57
2022/03/21 08:57:18;;;;;;;20.43;14.47;;;10.50;61.50;;;;;;5086589;28;20464;-57
2022/03/21 08:59:47;;;;;;;16.50;13.43;;;10.40;60.90;;;;;;5075431;28;20803;-57
2022/03/21 09:02:15;;;;;;;15.90;13.20;;;10.50;62.70;;;;;;5075167;28;20470;-56
2022/03/21 09:04:45;;;;;;;21.13;14.90;;;10.60;59.70;;;;;;5074974;28;20501;-57
2022/03/21 09:07:13;;;;;;;15.30;13.40;;;10.80;60.30;;;;;;5075358;28;20518;-57
2022/03/21 09:09:40;;;;;;;18.03;14.77;;;11.10;61.90;;;;;;5075162;28;20475;-57
2022/03/21 09:12:08;;;;;;;18.97;14.30;;;11.10;59.50;;;;;;5083486;28;20480;-57
2022/03/21 09:14:37;;;;;;;19.50;13.73;;;11.20;59.70;;;;;;5095404;28;20970;-57
2022/03/21 09:17:05;;;;;;;18.10;15.67;;;11.40;59.10;;;;;;5095708;28;20463;-57
2022/03/21 09:19:32;;;;;;;15.83;14.17;;;11.50;60.40;;;;;;5084549;28;20451;-57
2022/03/21 09:22:00;;;;;;;19.63;16.07;;;11.60;60.20;;;;;;5075002;28;20830;-57
2022/03/21 09:24:28;;;;;;;17.90;14.37;;;11.60;59.80;;;;;;5074893;28;20449;-57
2022/03/21 09:26:55;;;;;;;17.90;13.97;;;11.60;59.50;;;;;;5075305;28;21042;-57
2022/03/21 09:29:23;;;;;;;20.17;16.10;;;11.90;60.10;;;;;;5094960;28;20998;-57
2022/03/21 09:31:52;;;;;;;16.47;13.57;;;12.30;58.90;;;;;;5095226;28;20459;-57
2022/03/21 09:34:20;;;;;;;24.33;14.97;;;12.70;59.40;;;;;;5095299;28;20879;-57
2022/03/21 09:36:48;;;;;;;20.03;14.40;;;13.50;59.20;;;;;;5094409;28;21046;-57
2022/03/21 09:39:17;;;;;;;18.13;13.43;;;14.00;58.40;;;;;;5094930;28;20451;-57
2022/03/21 09:41:45;;;;;;;20.97;15.23;;;14.40;57.40;;;;;;5091535;28;20447;-57
2022/03/21 09:44:12;;;;;;;24.20;15.53;;;15.20;57.00;;;;;;5075102;28;20492;-57
2022/03/21 09:46:40;;;;;;;16.70;14.87;;;15.90;55.60;;;;;;5076285;28;20807;-58
2022/03/21 09:49:11;;;;;;;18.00;14.90;;;16.50;55.40;;;;;;5094873;28;20486;-57
2022/03/21 09:51:40;;;;;;;18.67;16.73;;;17.00;54.30;;;;;;5094279;28;20478;-60
2022/03/21 09:54:07;;;;;;;18.50;14.20;;;17.00;53.50;;;;;;5094467;28;20458;-57
2022/03/21 09:56:34;;;;;;;22.20;15.57;;;17.10;52.30;;;;;;5093467;28;20447;-58
2022/03/21 09:59:02;;;;;;;17.97;15.83;;;17.00;53.00;;;;;;5074588;28;20451;-57
2022/03/21 10:01:30;;;;;;;21.53;16.53;;;17.10;52.40;;;;;;5074549;28;20452;-57
2022/03/21 10:03:58;;;;;;;22.03;16.27;;;17.10;52.90;;;;;;5074185;28;20445;-58
2022/03/21 10:06:34;;;;;;;22.50;15.90;;;17.50;52.90;;;;;;5074079;28;20934;-58
2022/03/21 10:09:10;;;;;;;19.93;15.70;;;17.40;52.30;;;;;;5093762;28;20965;-58
2022/03/21 10:11:37;;;;;;;22.17;15.80;;;17.40;52.10;;;;;;5093306;28;20523;-58
2022/03/21 10:14:38;;;;;;;17.90;15.40;;;17.40;51.70;;;;;;5073524;28;20460;-57
2022/03/21 10:17:08;;;;;;;22.07;15.37;;;17.00;51.00;;;;;;5016174;28;20817;-58
2022/03/21 10:19:44;;;;;;;19.60;16.30;;;17.60;53.00;;;;;;5031784;28;20455;-57
2022/03/21 10:22:15;;;;;;;22.63;15.30;;;17.40;51.80;;;;;;5064340;28;20953;-57
2022/03/21 10:24:43;;;;;;;16.67;14.90;;;17.90;51.10;;;;;;5094106;28;20424;-58
2022/03/21 10:27:29;;;;;;;18.60;14.70;;;18.00;51.40;;;;;;5093543;28;20470;-58
2022/03/21 10:30:01;;;;;;;20.03;15.20;;;18.10;50.40;;;;;;5094071;28;20467;-58
2022/03/21 10:32:37;;;;;;;20.60;16.13;;;17.90;50.60;;;;;;5093848;28;20428;-58
2022/03/21 10:35:08;;;;;;;17.10;15.27;;;17.30;51.60;;;;;;5094097;28;20431;-58
2022/03/21 10:37:51;;;;;;;20.73;15.27;;;17.50;52.00;;;;;;5093940;28;20540;-57
2022/03/21 10:40:21;;;;;;;21.67;15.77;;;17.90;50.90;;;;;;5094240;28;20890;-58
2022/03/21 10:43:00;;;;;;;21.83;16.37;;;18.10;50.80;;;;;;5081156;28;20452;-58
2022/03/21 10:45:45;;;;;;;18.30;16.23;;;18.10;50.80;;;;;;5073425;28;20451;-58
2022/03/21 10:48:14;;;;;;;18.87;15.50;;;18.50;50.50;;;;;;5083565;28;20467;-58
2022/03/21 10:50:43;;;;;;;18.73;15.23;;;19.40;50.90;;;;;;5093319;28;20989;-57
2022/03/21 10:53:13;;;;;;;17.73;15.47;;;19.50;49.40;;;;;;5093222;28;20483;-58
2022/03/21 10:55:48;;;;;;;19.53;16.57;;;20.00;49.40;;;;;;5093577;28;20430;-58
2022/03/21 10:58:16;;;;;;;20.53;16.57;;;20.00;48.60;;;;;;5077304;28;20563;-58
2022/03/21 11:00:44;;;;;;;20.77;17.60;;;19.80;48.20;;;;;;5073010;28;20445;-58
2022/03/21 11:03:15;;;;;;;18.57;16.67;;;18.70;48.70;;;;;;5073006;28;20942;-57
2022/03/21 11:05:45;;;;;;;17.97;15.87;;;18.00;49.80;;;;;;5073805;28;20428;-57
2022/03/21 11:08:17;;;;;;;19.20;14.53;;;18.30;51.90;;;;;;5072946;28;20472;-58
2022/03/21 11:10:45;;;;;;;19.93;15.63;;;18.90;50.60;;;;;;5073217;28;20469;-58
2022/03/21 11:13:13;;;;;;;19.57;16.63;;;19.00;48.80;;;;;;5088144;28;20455;-58
2022/03/21 11:15:41;;;;;;;22.03;17.03;;;18.90;48.80;;;;;;5093354;28;20451;-57
2022/03/21 11:18:09;;;;;;;18.63;16.60;;;18.90;49.00;;;;;;5092486;28;20833;-57
2022/03/21 11:20:37;;;;;;;22.60;17.30;;;18.70;48.50;;;;;;5092939;28;20542;-56
2022/03/21 11:23:05;;;;;;;19.70;17.60;;;18.50;49.20;;;;;;5093202;28;20490;-57
2022/03/21 11:25:36;;;;;;;23.67;17.30;;;18.40;48.90;;;;;;5093278;28;20454;-56
2022/03/21 11:28:32;;;;;;;18.60;16.07;;;17.50;48.20;;;;;;5077591;28;20479;-57
2022/03/21 11:31:14;;;;;;;23.63;16.50;;;17.90;49.60;;;;;;5072991;28;20484;-56
2022/03/21 11:33:47;;;;;;;25.50;16.43;;;17.80;50.30;;;;;;5072930;28;20429;-57
2022/03/21 11:36:14;;;;;;;20.23;17.50;;;18.10;50.30;;;;;;5072983;28;20937;-56
2022/03/21 11:38:45;;;;;;;23.17;14.93;;;18.30;49.30;;;;;;5073083;28;20543;-56
2022/03/21 11:41:18;;;;;;;18.43;16.43;;;18.30;49.00;;;;;;5073333;28;20516;-56
2022/03/21 11:43:47;;;;;;;17.47;15.53;;;18.30;48.90;;;;;;5072927;28;20810;-57
2022/03/21 11:46:29;;;;;;;20.80;18.70;;;18.40;48.70;;;;;;5073192;28;20450;-57
2022/03/21 11:48:58;;;;;;;20.93;15.37;;;18.60;49.60;;;;;;5073158;28;20460;-56
2022/03/21 11:51:36;;;;;;;24.30;17.50;;;19.00;49.80;;;;;;5074997;28;20494;-56
2022/03/21 11:54:06;;;;;;;19.70;16.60;;;18.80;49.40;;;;;;5092632;28;20527;-56
2022/03/21 11:56:58;;;;;;;20.47;17.43;;;18.20;48.80;;;;;;5092244;28;20454;-56
2022/03/21 11:59:52;;;;;;;20.47;16.70;;;18.50;49.00;;;;;;5093113;28;20527;-57
2022/03/21 12:03:01;;;;;;;23.83;16.17;;;18.70;48.10;;;;;;5092820;28;20427;-57
2022/03/21 12:05:53;;;;;;;20.77;17.07;;;19.00;49.20;;;;;;5093125;28;20786;-57
2022/03/21 12:08:51;;;;;;;21.83;15.80;;;19.00;47.40;;;;;;5072982;28;20488;-57
2022/03/21 12:11:58;;;;;;;18.40;16.27;;;18.90;47.90;;;;;;5072330;28;20473;-57
2022/03/21 12:14:29;;;;;;;21.20;15.90;;;19.20;47.80;;;;;;5072878;28;20463;-57
2022/03/21 12:17:41;;;;;;;18.93;15.73;;;18.50;47.00;;;;;;5074273;28;21057;-58
2022/03/21 12:20:14;;;;;;;18.23;15.90;;;18.30;47.70;;;;;;5092935;28;20471;-58
2022/03/21 12:22:47;;;;;;;18.17;16.03;;;19.00;47.70;;;;;;5077988;28;20444;-58
2022/03/21 12:25:17;;;;;;;18.97;14.97;;;19.20;47.20;;;;;;5071107;28;20452;-58
2022/03/21 12:27:47;;;;;;;17.03;15.33;;;19.40;46.60;;;;;;5081154;28;20562;-58
2022/03/21 12:30:37;;;;;;;15.87;14.27;;;19.50;48.10;;;;;;5092903;28;20479;-56
2022/03/21 12:33:29;;;;;;;18.17;15.97;;;19.80;47.80;;;;;;5092779;28;20450;-58
2022/03/21 12:36:10;;;;;;;22.77;15.17;;;19.90;46.70;;;;;;5092502;28;20467;-58
2022/03/21 12:38:39;;;;;;;17.57;14.73;;;19.70;47.00;;;;;;5071847;28;20470;-58
2022/03/21 12:41:11;;;;;;;18.40;14.10;;;19.80;47.50;;;;;;5075155;28;20930;-58
2022/03/21 12:43:55;;;;;;;18.77;14.60;;;19.60;45.40;;;;;;5074110;28;20462;-57
2022/03/21 12:46:23;;;;;;;18.40;13.70;;;19.40;46.50;;;;;;5075651;28;20443;-57
2022/03/21 12:48:55;;;;;;;20.50;15.27;;;19.40;45.80;;;;;;5075851;28;20869;-58
2022/03/21 12:51:31;;;;;;;23.83;15.40;;;19.30;47.30;;;;;;5079545;28;20473;-58
2022/03/21 12:54:01;;;;;;;19.17;13.27;;;20.10;47.40;;;;;;5095983;28;20427;-58
2022/03/21 12:56:29;;;;;;;17.63;13.30;;;20.70;46.40;;;;;;5095872;28;20479;-57
2022/03/21 12:59:03;;;;;;;14.23;12.20;;;20.50;46.30;;;;;;5095476;28;20539;-57
2022/03/21 13:01:31;;;;;;;16.70;13.23;;;20.00;44.40;;;;;;5095668;28;20475;-58
2022/03/21 13:10:32;;;;;;;18.43;13.70;;;20.00;44.50;;;;;;5095900;28;20542;-58